KZR622 UACC-UAAA
Flight info
| Callsign | KZR622 |
|---|---|
| Flight time | 1h 21m |
| Altitude | 37000 |
| Route | BANOS1A BANOS W333 ETEDA ETEDA1X |
| Aircraft | A20N/M-SDE2E3FGHIRWXY/LB1 |
Departure
| Time | 2026-04-28 15:36 |
|---|---|
| Airport | Nursultan Nazarbayev International Airport (UACC) |
Arrival
| Time | 2026-04-28 16:57 |
|---|---|
| Airport | Almaty International Airport (UAAA) |
| Time | Latitude | Longitude | Altitude | Speed | Heading |
|---|---|---|---|---|---|
| 2026-04-28 15:16 | 51.02636 | 71.46001 | 1173 ft | 0 kts | 28° |
| 2026-04-28 15:25 | 51.02625 | 71.45991 | 1174 ft | 2 kts | 28° |
| 2026-04-28 15:25 | 51.02612 | 71.45980 | 1174 ft | 2 kts | 28° |
| 2026-04-28 15:25 | 51.02599 | 71.45969 | 1173 ft | 2 kts | 28° |
| 2026-04-28 15:25 | 51.02586 | 71.45958 | 1174 ft | 2 kts | 28° |
| 2026-04-28 15:26 | 51.02573 | 71.45943 | 1174 ft | 2 kts | 56° |
| 2026-04-28 15:26 | 51.02567 | 71.45921 | 1174 ft | 2 kts | 84° |
| 2026-04-28 15:26 | 51.02569 | 71.45898 | 1174 ft | 2 kts | 114° |
| 2026-04-28 15:26 | 51.02576 | 71.45882 | 1174 ft | 1 kts | 138° |
| 2026-04-28 15:27 | 51.02587 | 71.45866 | 1174 ft | 2 kts | 131° |
| 2026-04-28 15:27 | 51.02592 | 71.45856 | 1174 ft | 0 kts | 132° |
| 2026-04-28 15:29 | 51.02591 | 71.45858 | 1173 ft | 0 kts | 126° |
| 2026-04-28 15:29 | 51.02584 | 71.45871 | 1173 ft | 2 kts | 133° |
| 2026-04-28 15:29 | 51.02565 | 71.45904 | 1173 ft | 5 kts | 133° |
| 2026-04-28 15:29 | 51.02531 | 71.45961 | 1173 ft | 8 kts | 133° |
| 2026-04-28 15:30 | 51.02482 | 71.46038 | 1173 ft | 11 kts | 135° |
| 2026-04-28 15:30 | 51.02421 | 71.46135 | 1173 ft | 13 kts | 136° |
| 2026-04-28 15:30 | 51.02358 | 71.46235 | 1174 ft | 10 kts | 125° |
| 2026-04-28 15:30 | 51.02367 | 71.46333 | 1173 ft | 10 kts | 47° |
| 2026-04-28 15:31 | 51.02419 | 71.46414 | 1173 ft | 10 kts | 44° |
| 2026-04-28 15:31 | 51.02474 | 71.46501 | 1173 ft | 11 kts | 45° |
| 2026-04-28 15:31 | 51.02533 | 71.46594 | 1173 ft | 12 kts | 43° |
| 2026-04-28 15:31 | 51.02595 | 71.46689 | 1173 ft | 12 kts | 44° |
| 2026-04-28 15:32 | 51.02659 | 71.46790 | 1174 ft | 13 kts | 45° |
| 2026-04-28 15:32 | 51.02704 | 71.46860 | 1174 ft | 13 kts | 43° |
| 2026-04-28 15:32 | 51.02797 | 71.47005 | 1173 ft | 14 kts | 44° |
| 2026-04-28 15:32 | 51.02869 | 71.47117 | 1173 ft | 15 kts | 44° |
| 2026-04-28 15:33 | 51.02946 | 71.47238 | 1174 ft | 16 kts | 44° |
| 2026-04-28 15:33 | 51.03030 | 71.47367 | 1173 ft | 17 kts | 44° |
| 2026-04-28 15:33 | 51.03118 | 71.47504 | 1174 ft | 18 kts | 44° |
| 2026-04-28 15:33 | 51.03207 | 71.47646 | 1174 ft | 18 kts | 44° |
| 2026-04-28 15:34 | 51.03303 | 71.47797 | 1174 ft | 19 kts | 45° |
| 2026-04-28 15:34 | 51.03393 | 71.47940 | 1174 ft | 15 kts | 47° |
| 2026-04-28 15:34 | 51.03430 | 71.48092 | 1174 ft | 15 kts | 88° |
| 2026-04-28 15:34 | 51.03419 | 71.48251 | 1173 ft | 13 kts | 111° |
| 2026-04-28 15:35 | 51.03357 | 71.48326 | 1173 ft | 12 kts | 200° |
| 2026-04-28 15:35 | 51.03114 | 71.47955 | 1174 ft | 69 kts | 223° |
| 2026-04-28 15:35 | 51.02602 | 71.47153 | 1174 ft | 136 kts | 228° |
| 2026-04-28 15:36 | 51.01825 | 71.45912 | 1358 ft | 170 kts | 222° |
| 2026-04-28 15:36 | 51.00988 | 71.44552 | 1910 ft | 177 kts | 222° |
| 2026-04-28 15:36 | 51.00122 | 71.43134 | 2565 ft | 183 kts | 221° |
| 2026-04-28 15:36 | 50.99147 | 71.41960 | 3270 ft | 177 kts | 192° |
| 2026-04-28 15:37 | 50.97933 | 71.42163 | 3688 ft | 183 kts | 144° |
| 2026-04-28 15:37 | 50.97013 | 71.43668 | 4110 ft | 197 kts | 129° |
| 2026-04-28 15:37 | 50.96071 | 71.45373 | 4538 ft | 214 kts | 132° |
| 2026-04-28 15:37 | 50.95364 | 71.46581 | 4751 ft | 230 kts | 133° |
| 2026-04-28 15:38 | 50.93840 | 71.49083 | 5601 ft | 244 kts | 134° |
| 2026-04-28 15:38 | 50.92617 | 71.51049 | 6133 ft | 259 kts | 134° |
| 2026-04-28 15:38 | 50.91342 | 71.53078 | 6921 ft | 264 kts | 134° |
| 2026-04-28 15:38 | 50.90054 | 71.55117 | 7761 ft | 266 kts | 135° |
| 2026-04-28 15:39 | 50.88707 | 71.57227 | 8592 ft | 269 kts | 135° |
| 2026-04-28 15:39 | 50.87358 | 71.59325 | 9395 ft | 272 kts | 135° |
| 2026-04-28 15:39 | 50.85997 | 71.61444 | 10179 ft | 276 kts | 135° |
| 2026-04-28 15:39 | 50.84612 | 71.63602 | 10718 ft | 288 kts | 136° |
| 2026-04-28 15:40 | 50.83131 | 71.65904 | 11077 ft | 306 kts | 136° |
| 2026-04-28 15:40 | 50.81578 | 71.68328 | 11410 ft | 324 kts | 136° |
| 2026-04-28 15:40 | 50.79941 | 71.70886 | 11766 ft | 339 kts | 136° |
| 2026-04-28 15:40 | 50.78240 | 71.73541 | 12404 ft | 345 kts | 136° |
| 2026-04-28 15:41 | 50.76535 | 71.76201 | 13135 ft | 347 kts | 136° |
| 2026-04-28 15:41 | 50.74808 | 71.78888 | 13809 ft | 351 kts | 136° |
| 2026-04-28 15:41 | 50.73069 | 71.81591 | 14467 ft | 355 kts | 137° |
| 2026-04-28 15:41 | 50.71296 | 71.84344 | 14979 ft | 363 kts | 137° |
| 2026-04-28 15:42 | 50.69479 | 71.87157 | 15531 ft | 369 kts | 137° |
| 2026-04-28 15:42 | 50.67629 | 71.90015 | 16168 ft | 372 kts | 137° |
| 2026-04-28 15:42 | 50.65783 | 71.92870 | 16780 ft | 375 kts | 137° |
| 2026-04-28 15:42 | 50.63912 | 71.95757 | 17345 ft | 380 kts | 137° |
| 2026-04-28 15:43 | 50.62023 | 71.98671 | 17906 ft | 383 kts | 137° |
| 2026-04-28 15:43 | 50.60112 | 72.01616 | 18468 ft | 387 kts | 137° |
| 2026-04-28 15:43 | 50.58186 | 72.04577 | 19004 ft | 390 kts | 136° |
| 2026-04-28 15:43 | 50.56214 | 72.07597 | 19401 ft | 398 kts | 136° |
| 2026-04-28 15:44 | 50.54242 | 72.10626 | 19851 ft | 403 kts | 136° |
| 2026-04-28 15:44 | 50.52218 | 72.13735 | 20380 ft | 406 kts | 136° |
| 2026-04-28 15:44 | 50.50222 | 72.16798 | 20889 ft | 409 kts | 136° |
| 2026-04-28 15:44 | 50.48163 | 72.19950 | 21398 ft | 412 kts | 136° |
| 2026-04-28 15:45 | 50.46101 | 72.23102 | 21894 ft | 415 kts | 136° |
| 2026-04-28 15:45 | 50.44026 | 72.26270 | 22378 ft | 418 kts | 136° |
| 2026-04-28 15:45 | 50.41937 | 72.29455 | 22856 ft | 422 kts | 136° |
| 2026-04-28 15:45 | 50.39834 | 72.32657 | 23325 ft | 425 kts | 136° |
| 2026-04-28 15:46 | 50.37697 | 72.35912 | 23807 ft | 427 kts | 136° |
| 2026-04-28 15:46 | 50.35567 | 72.39140 | 24257 ft | 430 kts | 135° |
| 2026-04-28 15:46 | 50.33424 | 72.42374 | 24557 ft | 437 kts | 135° |
| 2026-04-28 15:46 | 50.31220 | 72.45719 | 24917 ft | 441 kts | 135° |
| 2026-04-28 15:47 | 50.29017 | 72.49061 | 25336 ft | 444 kts | 135° |
| 2026-04-28 15:47 | 50.26808 | 72.52407 | 25747 ft | 447 kts | 135° |
| 2026-04-28 15:47 | 50.24570 | 72.55789 | 26146 ft | 449 kts | 135° |
| 2026-04-28 15:47 | 50.22309 | 72.59197 | 26530 ft | 452 kts | 135° |
| 2026-04-28 15:48 | 50.20058 | 72.62583 | 26911 ft | 454 kts | 135° |
| 2026-04-28 15:48 | 50.17762 | 72.66019 | 27298 ft | 456 kts | 136° |
| 2026-04-28 15:48 | 50.15465 | 72.69421 | 27649 ft | 459 kts | 136° |
| 2026-04-28 15:48 | 50.13142 | 72.72845 | 27981 ft | 461 kts | 136° |
| 2026-04-28 15:49 | 50.10828 | 72.76247 | 28297 ft | 463 kts | 136° |
| 2026-04-28 15:49 | 50.08453 | 72.79732 | 28607 ft | 466 kts | 136° |
| 2026-04-28 15:49 | 50.06114 | 72.83160 | 28906 ft | 467 kts | 136° |
| 2026-04-28 15:49 | 50.03749 | 72.86622 | 29189 ft | 469 kts | 136° |
| 2026-04-28 15:50 | 50.01386 | 72.90079 | 29453 ft | 471 kts | 136° |
| 2026-04-28 15:50 | 49.98978 | 72.93596 | 29700 ft | 473 kts | 136° |
| 2026-04-28 15:50 | 49.96598 | 72.97065 | 29966 ft | 474 kts | 136° |
| 2026-04-28 15:50 | 49.94208 | 73.00546 | 30295 ft | 473 kts | 136° |
| 2026-04-28 15:51 | 49.91796 | 73.04055 | 30626 ft | 472 kts | 136° |
| 2026-04-28 15:51 | 49.89421 | 73.07503 | 30828 ft | 474 kts | 136° |
| 2026-04-28 15:51 | 49.87025 | 73.10960 | 31151 ft | 473 kts | 137° |
| 2026-04-28 15:51 | 49.84603 | 73.14449 | 31539 ft | 471 kts | 137° |
| 2026-04-28 15:52 | 49.82225 | 73.17877 | 31868 ft | 469 kts | 137° |
| 2026-04-28 15:52 | 49.79828 | 73.21337 | 32173 ft | 469 kts | 137° |
| 2026-04-28 15:52 | 49.77451 | 73.24765 | 32480 ft | 468 kts | 137° |
| 2026-04-28 15:52 | 49.75090 | 73.28147 | 32767 ft | 467 kts | 138° |
| 2026-04-28 15:53 | 49.72603 | 73.31398 | 33030 ft | 467 kts | 142° |
| 2026-04-28 15:53 | 49.70005 | 73.34371 | 33275 ft | 466 kts | 146° |
| 2026-04-28 15:53 | 49.67273 | 73.37085 | 33524 ft | 466 kts | 149° |
| 2026-04-28 15:53 | 49.64473 | 73.39481 | 33759 ft | 466 kts | 154° |
| 2026-04-28 15:54 | 49.61534 | 73.41621 | 33982 ft | 465 kts | 158° |
| 2026-04-28 15:54 | 49.58546 | 73.43471 | 34194 ft | 465 kts | 160° |
| 2026-04-28 15:54 | 49.55546 | 73.45261 | 34407 ft | 465 kts | 160° |
| 2026-04-28 15:54 | 49.52552 | 73.47048 | 34623 ft | 465 kts | 160° |
| 2026-04-28 15:55 | 49.49538 | 73.48852 | 34847 ft | 464 kts | 160° |
| 2026-04-28 15:55 | 49.46546 | 73.50645 | 35070 ft | 464 kts | 160° |
| 2026-04-28 15:55 | 49.43527 | 73.52455 | 35286 ft | 463 kts | 160° |
| 2026-04-28 15:55 | 49.40543 | 73.54244 | 35487 ft | 463 kts | 160° |
| 2026-04-28 15:56 | 49.37532 | 73.56049 | 35658 ft | 464 kts | 160° |
| 2026-04-28 15:56 | 49.34566 | 73.57823 | 35802 ft | 464 kts | 160° |
| 2026-04-28 15:56 | 49.31557 | 73.59621 | 35947 ft | 465 kts | 160° |
| 2026-04-28 15:56 | 49.28554 | 73.61414 | 36089 ft | 466 kts | 160° |
| 2026-04-28 15:57 | 49.25518 | 73.63225 | 36228 ft | 466 kts | 160° |
| 2026-04-28 15:57 | 49.22520 | 73.65010 | 36358 ft | 467 kts | 160° |
| 2026-04-28 15:57 | 49.19521 | 73.66805 | 36461 ft | 468 kts | 160° |
| 2026-04-28 15:57 | 49.16509 | 73.68610 | 36568 ft | 468 kts | 160° |
| 2026-04-28 15:58 | 49.13446 | 73.70436 | 36699 ft | 468 kts | 161° |
| 2026-04-28 15:58 | 49.10438 | 73.72223 | 36825 ft | 469 kts | 161° |
| 2026-04-28 15:58 | 49.07388 | 73.74029 | 36931 ft | 469 kts | 161° |
| 2026-04-28 15:58 | 49.04372 | 73.75810 | 37024 ft | 470 kts | 160° |
| 2026-04-28 15:59 | 48.99313 | 73.78792 | 37164 ft | 471 kts | 160° |
| 2026-04-28 15:59 | 48.95243 | 73.81179 | 37271 ft | 472 kts | 161° |
| 2026-04-28 15:59 | 48.92178 | 73.82966 | 37275 ft | 472 kts | 161° |
| 2026-04-28 16:00 | 48.86038 | 73.86533 | 37280 ft | 472 kts | 161° |
| 2026-04-28 16:00 | 48.79945 | 73.90060 | 37282 ft | 472 kts | 161° |
| 2026-04-28 16:01 | 48.73805 | 73.93616 | 37283 ft | 472 kts | 161° |
| 2026-04-28 16:01 | 48.67677 | 73.97164 | 37283 ft | 472 kts | 161° |
| 2026-04-28 16:02 | 48.61564 | 74.00688 | 37283 ft | 472 kts | 161° |
| 2026-04-28 16:02 | 48.55434 | 74.04215 | 37283 ft | 472 kts | 161° |
| 2026-04-28 16:03 | 48.49316 | 74.07727 | 37283 ft | 472 kts | 161° |
| 2026-04-28 16:03 | 48.43213 | 74.11221 | 37283 ft | 472 kts | 161° |
| 2026-04-28 16:04 | 48.37081 | 74.14723 | 37283 ft | 472 kts | 161° |
| 2026-04-28 16:04 | 48.31990 | 74.17625 | 37283 ft | 472 kts | 161° |
| 2026-04-28 16:05 | 48.24837 | 74.21693 | 37229 ft | 471 kts | 161° |
| 2026-04-28 16:05 | 48.18706 | 74.25176 | 37087 ft | 473 kts | 161° |
| 2026-04-28 16:06 | 48.12602 | 74.28622 | 37005 ft | 473 kts | 161° |
| 2026-04-28 16:06 | 48.06434 | 74.32130 | 36963 ft | 474 kts | 161° |
| 2026-04-28 16:07 | 48.00312 | 74.35621 | 36946 ft | 474 kts | 161° |
| 2026-04-28 16:08 | 47.91114 | 74.40855 | 36937 ft | 474 kts | 161° |
| 2026-04-28 16:08 | 47.84971 | 74.44331 | 36934 ft | 474 kts | 161° |
| 2026-04-28 16:09 | 47.75737 | 74.49539 | 36934 ft | 474 kts | 161° |
| 2026-04-28 16:10 | 47.66538 | 74.54726 | 36933 ft | 474 kts | 161° |
| 2026-04-28 16:10 | 47.57314 | 74.59915 | 36934 ft | 474 kts | 161° |
| 2026-04-28 16:11 | 47.44865 | 74.66889 | 36934 ft | 475 kts | 161° |
| 2026-04-28 16:12 | 47.35558 | 74.72136 | 36934 ft | 475 kts | 161° |
| 2026-04-28 16:13 | 47.26298 | 74.77315 | 36935 ft | 475 kts | 161° |
| 2026-04-28 16:14 | 47.13998 | 74.84154 | 36934 ft | 475 kts | 161° |
| 2026-04-28 16:15 | 47.01699 | 74.90964 | 36934 ft | 474 kts | 161° |
| 2026-04-28 16:15 | 46.95521 | 74.94376 | 36934 ft | 474 kts | 161° |
| 2026-04-28 16:16 | 46.86338 | 74.99580 | 36933 ft | 475 kts | 159° |
| 2026-04-28 16:17 | 46.77251 | 75.05328 | 36934 ft | 474 kts | 158° |
| 2026-04-28 16:17 | 46.71215 | 75.09151 | 36922 ft | 474 kts | 159° |
| 2026-04-28 16:18 | 46.65187 | 75.12961 | 36843 ft | 475 kts | 159° |
| 2026-04-28 16:18 | 46.59146 | 75.16767 | 36786 ft | 476 kts | 159° |
| 2026-04-28 16:19 | 46.53111 | 75.20561 | 36758 ft | 476 kts | 159° |
| 2026-04-28 16:19 | 46.47041 | 75.24370 | 36745 ft | 476 kts | 159° |
| 2026-04-28 16:20 | 46.40968 | 75.28172 | 36744 ft | 476 kts | 159° |
| 2026-04-28 16:20 | 46.34891 | 75.31969 | 36739 ft | 476 kts | 159° |
| 2026-04-28 16:21 | 46.28850 | 75.35738 | 36738 ft | 476 kts | 158° |
| 2026-04-28 16:21 | 46.22799 | 75.39500 | 36738 ft | 476 kts | 159° |
| 2026-04-28 16:22 | 46.16710 | 75.43283 | 36736 ft | 476 kts | 158° |
| 2026-04-28 16:22 | 46.10632 | 75.47066 | 36737 ft | 476 kts | 158° |
| 2026-04-28 16:23 | 46.04559 | 75.50842 | 36738 ft | 476 kts | 158° |
| 2026-04-28 16:23 | 45.98582 | 75.54553 | 36738 ft | 476 kts | 158° |
| 2026-04-28 16:24 | 45.92430 | 75.58364 | 36738 ft | 476 kts | 158° |
| 2026-04-28 16:24 | 45.86396 | 75.62086 | 36737 ft | 476 kts | 158° |
| 2026-04-28 16:25 | 45.80338 | 75.65815 | 36736 ft | 476 kts | 159° |
| 2026-04-28 16:25 | 45.74264 | 75.69580 | 36737 ft | 475 kts | 159° |
| 2026-04-28 16:26 | 45.68218 | 75.73292 | 36735 ft | 476 kts | 159° |
| 2026-04-28 16:26 | 45.62101 | 75.77023 | 36745 ft | 474 kts | 159° |
| 2026-04-28 16:27 | 45.56010 | 75.80733 | 36739 ft | 476 kts | 159° |
| 2026-04-28 16:28 | 45.46888 | 75.86285 | 36738 ft | 476 kts | 159° |
| 2026-04-28 16:28 | 45.40805 | 75.89977 | 36737 ft | 476 kts | 159° |
| 2026-04-28 16:29 | 45.31676 | 75.95503 | 36737 ft | 475 kts | 159° |
| 2026-04-28 16:30 | 45.22553 | 76.01005 | 36737 ft | 475 kts | 159° |
| 2026-04-28 16:30 | 45.16468 | 76.04668 | 36736 ft | 475 kts | 160° |
| 2026-04-28 16:30 | 45.13406 | 76.06506 | 36506 ft | 476 kts | 160° |
| 2026-04-28 16:31 | 45.10392 | 76.08313 | 36256 ft | 473 kts | 160° |
| 2026-04-28 16:31 | 45.07388 | 76.10113 | 36004 ft | 469 kts | 160° |
| 2026-04-28 16:31 | 45.04348 | 76.11933 | 35748 ft | 466 kts | 160° |
| 2026-04-28 16:31 | 45.01364 | 76.13716 | 35498 ft | 466 kts | 160° |
| 2026-04-28 16:32 | 44.98335 | 76.15524 | 35244 ft | 466 kts | 160° |
| 2026-04-28 16:32 | 44.92352 | 76.19088 | 34743 ft | 467 kts | 160° |
| 2026-04-28 16:32 | 44.89318 | 76.20892 | 34489 ft | 467 kts | 160° |
| 2026-04-28 16:33 | 44.86325 | 76.22664 | 34239 ft | 468 kts | 160° |
| 2026-04-28 16:33 | 44.85368 | 76.23229 | 34159 ft | 468 kts | 160° |
| 2026-04-28 16:33 | 44.80361 | 76.26187 | 33601 ft | 469 kts | 160° |
| 2026-04-28 16:33 | 44.77335 | 76.27979 | 33138 ft | 467 kts | 160° |
| 2026-04-28 16:34 | 44.74350 | 76.29745 | 32657 ft | 466 kts | 160° |
| 2026-04-28 16:34 | 44.71372 | 76.31507 | 32099 ft | 467 kts | 161° |
| 2026-04-28 16:34 | 44.68377 | 76.33286 | 31498 ft | 467 kts | 161° |
| 2026-04-28 16:34 | 44.65393 | 76.35046 | 30861 ft | 467 kts | 162° |
| 2026-04-28 16:35 | 44.62399 | 76.36788 | 30176 ft | 468 kts | 160° |
| 2026-04-28 16:35 | 44.59382 | 76.38552 | 29417 ft | 470 kts | 160° |
| 2026-04-28 16:35 | 44.56368 | 76.40327 | 28658 ft | 472 kts | 160° |
| 2026-04-28 16:35 | 44.53353 | 76.42105 | 27945 ft | 472 kts | 160° |
| 2026-04-28 16:36 | 44.50366 | 76.43865 | 27473 ft | 466 kts | 160° |
| 2026-04-28 16:36 | 44.47409 | 76.45606 | 26990 ft | 461 kts | 160° |
| 2026-04-28 16:36 | 44.44453 | 76.47341 | 26499 ft | 457 kts | 160° |
| 2026-04-28 16:36 | 44.41559 | 76.49035 | 26012 ft | 453 kts | 160° |
| 2026-04-28 16:37 | 44.38690 | 76.50711 | 25528 ft | 449 kts | 160° |
| 2026-04-28 16:37 | 44.35773 | 76.52058 | 24995 ft | 440 kts | 174° |
| 2026-04-28 16:37 | 44.32768 | 76.52136 | 24492 ft | 426 kts | 193° |
| 2026-04-28 16:38 | 44.27409 | 76.49252 | 23590 ft | 409 kts | 208° |
| 2026-04-28 16:38 | 44.24859 | 76.47530 | 23158 ft | 405 kts | 208° |
| 2026-04-28 16:38 | 44.22347 | 76.45851 | 22714 ft | 401 kts | 208° |
| 2026-04-28 16:38 | 44.19842 | 76.44200 | 22270 ft | 398 kts | 207° |
| 2026-04-28 16:39 | 44.17348 | 76.42567 | 21810 ft | 395 kts | 207° |
| 2026-04-28 16:39 | 44.14878 | 76.40956 | 21347 ft | 392 kts | 207° |
| 2026-04-28 16:39 | 44.12413 | 76.39355 | 20878 ft | 389 kts | 207° |
| 2026-04-28 16:39 | 44.09975 | 76.37774 | 20412 ft | 387 kts | 207° |
| 2026-04-28 16:40 | 44.07511 | 76.36180 | 19936 ft | 384 kts | 207° |
| 2026-04-28 16:40 | 44.05091 | 76.34616 | 19467 ft | 382 kts | 207° |
| 2026-04-28 16:40 | 44.02693 | 76.33069 | 18999 ft | 379 kts | 207° |
| 2026-04-28 16:40 | 44.00324 | 76.31535 | 18542 ft | 377 kts | 206° |
| 2026-04-28 16:41 | 43.97971 | 76.30018 | 18135 ft | 373 kts | 206° |
| 2026-04-28 16:41 | 43.95627 | 76.28514 | 17705 ft | 371 kts | 206° |
| 2026-04-28 16:41 | 43.93319 | 76.27033 | 17327 ft | 365 kts | 206° |
| 2026-04-28 16:41 | 43.91076 | 76.25595 | 17253 ft | 352 kts | 206° |
| 2026-04-28 16:42 | 43.88757 | 76.24548 | 16853 ft | 353 kts | 191° |
| 2026-04-28 16:42 | 43.86322 | 76.24421 | 16445 ft | 353 kts | 175° |
| 2026-04-28 16:42 | 43.84132 | 76.24965 | 16083 ft | 351 kts | 169° |
| 2026-04-28 16:42 | 43.81778 | 76.25721 | 15680 ft | 349 kts | 168° |
| 2026-04-28 16:43 | 43.79414 | 76.26502 | 15275 ft | 347 kts | 168° |
| 2026-04-28 16:43 | 43.77077 | 76.27259 | 14875 ft | 344 kts | 168° |
| 2026-04-28 16:43 | 43.74762 | 76.27995 | 14479 ft | 342 kts | 168° |
| 2026-04-28 16:43 | 43.72448 | 76.28709 | 14097 ft | 339 kts | 167° |
| 2026-04-28 16:44 | 43.70181 | 76.29402 | 13785 ft | 334 kts | 166° |
| 2026-04-28 16:44 | 43.67923 | 76.30106 | 13463 ft | 330 kts | 166° |
| 2026-04-28 16:44 | 43.65713 | 76.30795 | 13109 ft | 327 kts | 166° |
| 2026-04-28 16:44 | 43.63496 | 76.31481 | 12738 ft | 325 kts | 166° |
| 2026-04-28 16:45 | 43.61297 | 76.32214 | 12357 ft | 323 kts | 163° |
| 2026-04-28 16:45 | 43.59165 | 76.33214 | 11977 ft | 321 kts | 157° |
| 2026-04-28 16:45 | 43.57139 | 76.34486 | 11600 ft | 319 kts | 153° |
| 2026-04-28 16:45 | 43.55160 | 76.35852 | 11223 ft | 317 kts | 152° |
| 2026-04-28 16:46 | 43.53148 | 76.37258 | 10836 ft | 315 kts | 152° |
| 2026-04-28 16:46 | 43.51203 | 76.38612 | 10463 ft | 314 kts | 152° |
| 2026-04-28 16:46 | 43.49256 | 76.39961 | 10141 ft | 309 kts | 152° |
| 2026-04-28 16:46 | 43.47370 | 76.41262 | 10088 ft | 294 kts | 152° |
| 2026-04-28 16:47 | 43.45587 | 76.42488 | 10035 ft | 282 kts | 152° |
| 2026-04-28 16:47 | 43.43841 | 76.43689 | 9851 ft | 279 kts | 152° |
| 2026-04-28 16:47 | 43.42122 | 76.44873 | 9530 ft | 277 kts | 151° |
| 2026-04-28 16:47 | 43.40481 | 76.46254 | 9218 ft | 275 kts | 143° |
| 2026-04-28 16:48 | 43.39018 | 76.47923 | 8918 ft | 272 kts | 136° |
| 2026-04-28 16:48 | 43.37641 | 76.49719 | 8620 ft | 270 kts | 135° |
| 2026-04-28 16:48 | 43.36304 | 76.51496 | 8327 ft | 268 kts | 135° |
| 2026-04-28 16:48 | 43.34949 | 76.53292 | 8031 ft | 265 kts | 135° |
| 2026-04-28 16:49 | 43.33628 | 76.55034 | 7742 ft | 263 kts | 135° |
| 2026-04-28 16:49 | 43.32314 | 76.56759 | 7454 ft | 261 kts | 135° |
| 2026-04-28 16:49 | 43.31013 | 76.58460 | 7170 ft | 259 kts | 136° |
| 2026-04-28 16:49 | 43.29712 | 76.60159 | 6885 ft | 257 kts | 136° |
| 2026-04-28 16:50 | 43.28428 | 76.61835 | 6794 ft | 246 kts | 136° |
| 2026-04-28 16:50 | 43.27209 | 76.63448 | 6592 ft | 239 kts | 131° |
| 2026-04-28 16:50 | 43.26313 | 76.65314 | 6379 ft | 233 kts | 112° |
| 2026-04-28 16:50 | 43.25852 | 76.67442 | 6177 ft | 226 kts | 103° |
| 2026-04-28 16:51 | 43.25520 | 76.69492 | 6017 ft | 217 kts | 100° |
| 2026-04-28 16:51 | 43.25212 | 76.71491 | 5877 ft | 204 kts | 100° |
| 2026-04-28 16:51 | 43.24919 | 76.73359 | 5662 ft | 196 kts | 101° |
| 2026-04-28 16:51 | 43.24627 | 76.75182 | 5472 ft | 197 kts | 101° |
| 2026-04-28 16:52 | 43.24329 | 76.77029 | 5347 ft | 200 kts | 102° |
| 2026-04-28 16:52 | 43.24018 | 76.78905 | 5222 ft | 201 kts | 102° |
| 2026-04-28 16:52 | 43.23925 | 76.80807 | 5076 ft | 199 kts | 78° |
| 2026-04-28 16:52 | 43.24477 | 76.82533 | 4967 ft | 197 kts | 57° |
| 2026-04-28 16:53 | 43.25238 | 76.84062 | 4772 ft | 189 kts | 53° |
| 2026-04-28 16:53 | 43.25975 | 76.85473 | 4578 ft | 178 kts | 53° |
| 2026-04-28 16:53 | 43.26660 | 76.86795 | 4377 ft | 160 kts | 53° |
| 2026-04-28 16:53 | 43.27272 | 76.87989 | 4218 ft | 156 kts | 53° |
| 2026-04-28 16:54 | 43.27954 | 76.89306 | 4258 ft | 174 kts | 54° |
| 2026-04-28 16:54 | 43.28661 | 76.90698 | 4144 ft | 182 kts | 54° |
| 2026-04-28 16:54 | 43.29366 | 76.92117 | 3892 ft | 175 kts | 55° |
| 2026-04-28 16:54 | 43.29807 | 76.93014 | 3696 ft | 167 kts | 55° |
| 2026-04-28 16:55 | 43.30601 | 76.94684 | 3428 ft | 151 kts | 56° |
| 2026-04-28 16:55 | 43.31191 | 76.95873 | 3237 ft | 149 kts | 54° |
| 2026-04-28 16:55 | 43.31787 | 76.97073 | 3060 ft | 152 kts | 56° |
| 2026-04-28 16:55 | 43.32379 | 76.98270 | 2892 ft | 153 kts | 55° |
| 2026-04-28 16:56 | 43.32983 | 76.99468 | 2686 ft | 152 kts | 55° |
| 2026-04-28 16:56 | 43.33582 | 77.00663 | 2487 ft | 152 kts | 56° |
| 2026-04-28 16:56 | 43.34174 | 77.01855 | 2291 ft | 151 kts | 55° |
| 2026-04-28 16:56 | 43.34729 | 77.02969 | 2240 ft | 128 kts | 56° |
| 2026-04-28 16:57 | 43.35133 | 77.03790 | 2240 ft | 77 kts | 55° |
| 2026-04-28 16:57 | 43.35341 | 77.04207 | 2240 ft | 27 kts | 56° |
| 2026-04-28 16:57 | 43.35407 | 77.04317 | 2240 ft | 12 kts | 58° |
| 2026-04-28 16:57 | 43.35532 | 77.04595 | 2240 ft | 59 kts | 56° |
| 2026-04-28 16:58 | 43.35754 | 77.05040 | 2240 ft | 46 kts | 56° |
| 2026-04-28 16:58 | 43.35876 | 77.05168 | 2240 ft | 14 kts | 336° |
| 2026-04-28 16:58 | 43.35959 | 77.05092 | 2240 ft | 14 kts | 320° |
| 2026-04-28 16:58 | 43.35950 | 77.04975 | 2240 ft | 13 kts | 236° |
| 2026-04-28 16:59 | 43.35896 | 77.04867 | 2240 ft | 13 kts | 235° |
| 2026-04-28 16:59 | 43.35841 | 77.04755 | 2240 ft | 14 kts | 236° |
| 2026-04-28 16:59 | 43.35791 | 77.04655 | 2240 ft | 16 kts | 236° |
| 2026-04-28 16:59 | 43.35720 | 77.04512 | 2240 ft | 22 kts | 235° |
| 2026-04-28 17:00 | 43.35620 | 77.04310 | 2240 ft | 28 kts | 236° |
| 2026-04-28 17:00 | 43.35504 | 77.04076 | 2240 ft | 30 kts | 235° |
| 2026-04-28 17:00 | 43.35379 | 77.03828 | 2240 ft | 31 kts | 235° |
| 2026-04-28 17:00 | 43.35257 | 77.03574 | 2240 ft | 30 kts | 236° |
| 2026-04-28 17:01 | 43.35140 | 77.03340 | 2240 ft | 28 kts | 236° |
| 2026-04-28 17:01 | 43.35033 | 77.03123 | 2240 ft | 26 kts | 236° |
| 2026-04-28 17:01 | 43.34935 | 77.02925 | 2240 ft | 24 kts | 235° |
| 2026-04-28 17:01 | 43.34841 | 77.02738 | 2240 ft | 23 kts | 236° |
| 2026-04-28 17:02 | 43.34772 | 77.02546 | 2240 ft | 21 kts | 260° |
| 2026-04-28 17:02 | 43.34776 | 77.02412 | 2240 ft | 20 kts | 274° |
| 2026-04-28 17:02 | 43.34788 | 77.02153 | 2240 ft | 19 kts | 273° |
| 2026-04-28 17:02 | 43.34796 | 77.01997 | 2240 ft | 5 kts | 276° |
| 2026-04-28 17:03 | 43.34848 | 77.01952 | 2240 ft | 5 kts | 7° |
| 2026-04-28 17:03 | 43.34893 | 77.01955 | 2240 ft | 6 kts | 345° |
| 2026-04-28 17:03 | 43.34903 | 77.01908 | 2240 ft | 6 kts | 225° |
| 2026-04-28 17:04 | 43.34856 | 77.01897 | 2240 ft | 0 kts | 185° |